sensor_id;sensor_type;location;lat;lon;timestamp;temperature;humidity
4787;DHT22;62338;48.832;9.422;2023-07-31T00:02:01;14.70;99.90
4787;DHT22;62338;48.832;9.422;2023-07-31T00:04:03;14.60;99.90
4787;DHT22;62338;48.832;9.422;2023-07-31T00:06:05;14.50;99.90
4787;DHT22;62338;48.832;9.422;2023-07-31T00:08:07;14.40;99.90
4787;DHT22;62338;48.832;9.422;2023-07-31T00:10:09;14.30;99.90
4787;DHT22;62338;48.832;9.422;2023-07-31T00:12:10;14.30;99.90
4787;DHT22;62338;48.832;9.422;2023-07-31T00:14:12;14.20;99.90
4787;DHT22;62338;48.832;9.422;2023-07-31T00:16:14;14.10;99.90
4787;DHT22;62338;48.832;9.422;2023-07-31T00:18:16;14.00;99.90
4787;DHT22;62338;48.832;9.422;2023-07-31T00:20:18;14.00;99.90
4787;DHT22;62338;48.832;9.422;2023-07-31T00:22:19;14.10;99.90
4787;DHT22;62338;48.832;9.422;2023-07-31T00:24:21;14.00;99.90
4787;DHT22;62338;48.832;9.422;2023-07-31T00:26:23;13.90;99.90
4787;DHT22;62338;48.832;9.422;2023-07-31T00:28:25;13.90;99.90
4787;DHT22;62338;48.832;9.422;2023-07-31T00:30:27;13.90;99.90
4787;DHT22;62338;48.832;9.422;2023-07-31T00:32:28;14.00;99.90
4787;DHT22;62338;48.832;9.422;2023-07-31T00:34:30;14.00;99.90
4787;DHT22;62338;48.832;9.422;2023-07-31T00:36:32;14.00;99.90
4787;DHT22;62338;48.832;9.422;2023-07-31T00:38:34;14.00;99.90
4787;DHT22;62338;48.832;9.422;2023-07-31T00:40:36;14.00;99.90
4787;DHT22;62338;48.832;9.422;2023-07-31T00:42:38;13.90;99.90
4787;DHT22;62338;48.832;9.422;2023-07-31T00:44:40;13.90;99.90
4787;DHT22;62338;48.832;9.422;2023-07-31T00:46:42;13.90;99.90
4787;DHT22;62338;48.832;9.422;2023-07-31T00:48:44;13.90;99.90
4787;DHT22;62338;48.832;9.422;2023-07-31T00:50:46;13.80;99.90
4787;DHT22;62338;48.832;9.422;2023-07-31T00:52:48;13.70;99.90
4787;DHT22;62338;48.832;9.422;2023-07-31T00:54:50;13.80;99.90
4787;DHT22;62338;48.832;9.422;2023-07-31T00:56:53;13.70;99.90
4787;DHT22;62338;48.832;9.422;2023-07-31T00:58:56;13.60;99.90
4787;DHT22;62338;48.832;9.422;2023-07-31T01:00:58;13.50;99.90
4787;DHT22;62338;48.832;9.422;2023-07-31T01:03:00;13.50;99.90
4787;DHT22;62338;48.832;9.422;2023-07-31T01:05:03;13.40;99.90
4787;DHT22;62338;48.832;9.422;2023-07-31T01:07:17;13.40;99.90
4787;DHT22;62338;48.832;9.422;2023-07-31T01:09:37;13.40;99.90
4787;DHT22;62338;48.832;9.422;2023-07-31T01:11:51;13.40;99.90
4787;DHT22;62338;48.832;9.422;2023-07-31T01:13:55;13.40;99.90
4787;DHT22;62338;48.832;9.422;2023-07-31T01:15:57;13.40;99.90
4787;DHT22;62338;48.832;9.422;2023-07-31T01:17:58;13.40;99.90
4787;DHT22;62338;48.832;9.422;2023-07-31T01:20:04;13.40;99.90
4787;DHT22;62338;48.832;9.422;2023-07-31T01:22:23;13.40;99.90
4787;DHT22;62338;48.832;9.422;2023-07-31T01:24:41;13.50;99.90
4787;DHT22;62338;48.832;9.422;2023-07-31T01:26:56;13.70;99.90
4787;DHT22;62338;48.832;9.422;2023-07-31T01:29:17;13.70;99.90
4787;DHT22;62338;48.832;9.422;2023-07-31T01:31:25;13.70;99.90
4787;DHT22;62338;48.832;9.422;2023-07-31T01:33:28;13.70;99.90
4787;DHT22;62338;48.832;9.422;2023-07-31T01:35:30;13.70;99.90
4787;DHT22;62338;48.832;9.422;2023-07-31T01:37:32;13.70;99.90
4787;DHT22;62338;48.832;9.422;2023-07-31T01:39:34;13.70;99.90
4787;DHT22;62338;48.832;9.422;2023-07-31T01:41:35;13.80;99.90
4787;DHT22;62338;48.832;9.422;2023-07-31T01:43:37;13.80;99.90
4787;DHT22;62338;48.832;9.422;2023-07-31T01:45:39;13.80;99.90
4787;DHT22;62338;48.832;9.422;2023-07-31T01:47:40;13.90;99.90
4787;DHT22;62338;48.832;9.422;2023-07-31T01:49:42;13.80;99.90
4787;DHT22;62338;48.832;9.422;2023-07-31T01:51:44;13.80;99.90
4787;DHT22;62338;48.832;9.422;2023-07-31T01:53:46;13.80;99.90
4787;DHT22;62338;48.832;9.422;2023-07-31T01:55:47;13.80;99.90
4787;DHT22;62338;48.832;9.422;2023-07-31T01:57:49;13.80;99.90
4787;DHT22;62338;48.832;9.422;2023-07-31T01:59:51;13.80;99.90
4787;DHT22;62338;48.832;9.422;2023-07-31T02:01:54;13.80;99.90
4787;DHT22;62338;48.832;9.422;2023-07-31T02:03:56;13.90;99.90
4787;DHT22;62338;48.832;9.422;2023-07-31T02:05:59;13.90;99.90
4787;DHT22;62338;48.832;9.422;2023-07-31T02:08:01;13.90;99.90
4787;DHT22;62338;48.832;9.422;2023-07-31T02:10:07;13.90;99.90
4787;DHT22;62338;48.832;9.422;2023-07-31T02:12:09;13.90;99.90
4787;DHT22;62338;48.832;9.422;2023-07-31T02:14:10;13.80;99.90
4787;DHT22;62338;48.832;9.422;2023-07-31T02:16:12;13.70;99.90
4787;DHT22;62338;48.832;9.422;2023-07-31T02:18:14;13.70;99.90
4787;DHT22;62338;48.832;9.422;2023-07-31T02:20:15;13.60;99.90
4787;DHT22;62338;48.832;9.422;2023-07-31T02:22:17;13.60;99.90
4787;DHT22;62338;48.832;9.422;2023-07-31T02:24:19;13.60;99.90
4787;DHT22;62338;48.832;9.422;2023-07-31T02:26:21;13.60;99.90
4787;DHT22;62338;48.832;9.422;2023-07-31T02:28:23;13.60;99.90
4787;DHT22;62338;48.832;9.422;2023-07-31T02:30:25;13.70;99.90
4787;DHT22;62338;48.832;9.422;2023-07-31T02:32:27;13.60;99.90
4787;DHT22;62338;48.832;9.422;2023-07-31T02:34:28;13.60;99.90
4787;DHT22;62338;48.832;9.422;2023-07-31T02:36:30;13.50;99.90
4787;DHT22;62338;48.832;9.422;2023-07-31T02:38:32;13.50;99.90
4787;DHT22;62338;48.832;9.422;2023-07-31T02:40:34;13.50;99.90
4787;DHT22;62338;48.832;9.422;2023-07-31T02:42:36;13.50;99.90
4787;DHT22;62338;48.832;9.422;2023-07-31T02:44:37;13.60;99.90
4787;DHT22;62338;48.832;9.422;2023-07-31T02:46:40;13.50;99.90
4787;DHT22;62338;48.832;9.422;2023-07-31T02:48:42;13.50;99.90
4787;DHT22;62338;48.832;9.422;2023-07-31T02:50:43;13.50;99.90
4787;DHT22;62338;48.832;9.422;2023-07-31T02:52:45;13.50;99.90
4787;DHT22;62338;48.832;9.422;2023-07-31T02:54:47;13.50;99.90
4787;DHT22;62338;48.832;9.422;2023-07-31T02:56:49;13.50;99.90
4787;DHT22;62338;48.832;9.422;2023-07-31T02:58:50;13.50;99.90
4787;DHT22;62338;48.832;9.422;2023-07-31T03:00:52;13.50;99.90
4787;DHT22;62338;48.832;9.422;2023-07-31T03:02:54;13.40;99.90
4787;DHT22;62338;48.832;9.422;2023-07-31T03:04:56;13.30;99.90
4787;DHT22;62338;48.832;9.422;2023-07-31T03:06:57;13.30;99.90
4787;DHT22;62338;48.832;9.422;2023-07-31T03:08:59;13.20;99.90
4787;DHT22;62338;48.832;9.422;2023-07-31T03:11:01;13.20;99.90
4787;DHT22;62338;48.832;9.422;2023-07-31T03:13:03;13.20;99.90
4787;DHT22;62338;48.832;9.422;2023-07-31T03:15:04;13.20;99.90
4787;DHT22;62338;48.832;9.422;2023-07-31T03:17:06;13.30;99.90
4787;DHT22;62338;48.832;9.422;2023-07-31T03:19:08;13.40;99.90
4787;DHT22;62338;48.832;9.422;2023-07-31T03:21:10;13.50;99.90
4787;DHT22;62338;48.832;9.422;2023-07-31T03:23:12;13.40;99.90
4787;DHT22;62338;48.832;9.422;2023-07-31T03:25:14;13.40;99.90
4787;DHT22;62338;48.832;9.422;2023-07-31T03:27:16;13.40;99.90
4787;DHT22;62338;48.832;9.422;2023-07-31T03:29:17;13.30;99.90
4787;DHT22;62338;48.832;9.422;2023-07-31T03:31:19;13.30;99.90
4787;DHT22;62338;48.832;9.422;2023-07-31T03:33:21;13.30;99.90
4787;DHT22;62338;48.832;9.422;2023-07-31T03:35:23;13.40;99.90
4787;DHT22;62338;48.832;9.422;2023-07-31T03:37:24;13.50;99.90
4787;DHT22;62338;48.832;9.422;2023-07-31T03:39:26;13.60;99.90
4787;DHT22;62338;48.832;9.422;2023-07-31T03:41:28;13.60;99.90
4787;DHT22;62338;48.832;9.422;2023-07-31T03:43:30;13.70;99.90
4787;DHT22;62338;48.832;9.422;2023-07-31T03:45:31;13.70;99.90
4787;DHT22;62338;48.832;9.422;2023-07-31T03:47:33;13.60;99.90
4787;DHT22;62338;48.832;9.422;2023-07-31T03:49:35;13.60;99.90
4787;DHT22;62338;48.832;9.422;2023-07-31T03:51:37;13.60;99.90
4787;DHT22;62338;48.832;9.422;2023-07-31T03:53:39;13.60;99.90
4787;DHT22;62338;48.832;9.422;2023-07-31T03:55:40;13.70;99.90
4787;DHT22;62338;48.832;9.422;2023-07-31T03:57:42;13.70;99.90
4787;DHT22;62338;48.832;9.422;2023-07-31T03:59:44;13.80;99.90
4787;DHT22;62338;48.832;9.422;2023-07-31T04:01:46;13.80;99.90
4787;DHT22;62338;48.832;9.422;2023-07-31T04:03:47;13.80;99.90
4787;DHT22;62338;48.832;9.422;2023-07-31T04:05:49;13.90;99.90
4787;DHT22;62338;48.832;9.422;2023-07-31T04:07:51;13.80;99.90
4787;DHT22;62338;48.832;9.422;2023-07-31T04:09:53;13.80;99.90
4787;DHT22;62338;48.832;9.422;2023-07-31T04:11:55;13.80;99.90
4787;DHT22;62338;48.832;9.422;2023-07-31T04:13:56;13.80;99.90
4787;DHT22;62338;48.832;9.422;2023-07-31T04:15:58;13.90;99.90
4787;DHT22;62338;48.832;9.422;2023-07-31T04:18:00;13.90;99.90
4787;DHT22;62338;48.832;9.422;2023-07-31T04:20:02;13.90;99.90
4787;DHT22;62338;48.832;9.422;2023-07-31T04:22:04;14.00;99.90
4787;DHT22;62338;48.832;9.422;2023-07-31T04:24:05;14.00;99.90
4787;DHT22;62338;48.832;9.422;2023-07-31T04:26:07;14.00;99.90
4787;DHT22;62338;48.832;9.422;2023-07-31T04:28:09;14.00;99.90
4787;DHT22;62338;48.832;9.422;2023-07-31T04:30:12;14.00;99.90
4787;DHT22;62338;48.832;9.422;2023-07-31T04:32:14;14.00;99.90
4787;DHT22;62338;48.832;9.422;2023-07-31T04:34:18;14.10;99.90
4787;DHT22;62338;48.832;9.422;2023-07-31T04:36:20;14.10;99.90
4787;DHT22;62338;48.832;9.422;2023-07-31T04:38:21;14.10;99.90
4787;DHT22;62338;48.832;9.422;2023-07-31T04:40:23;14.10;99.90
4787;DHT22;62338;48.832;9.422;2023-07-31T04:42:25;14.10;99.90
4787;DHT22;62338;48.832;9.422;2023-07-31T04:44:27;14.20;99.90
4787;DHT22;62338;48.832;9.422;2023-07-31T04:46:29;14.30;99.90
4787;DHT22;62338;48.832;9.422;2023-07-31T04:48:30;14.40;99.90
4787;DHT22;62338;48.832;9.422;2023-07-31T04:50:32;14.50;99.90
4787;DHT22;62338;48.832;9.422;2023-07-31T04:52:34;14.60;99.90
4787;DHT22;62338;48.832;9.422;2023-07-31T04:54:36;14.70;99.90
4787;DHT22;62338;48.832;9.422;2023-07-31T04:56:38;14.80;99.90
4787;DHT22;62338;48.832;9.422;2023-07-31T04:58:58;14.80;99.90
4787;DHT22;62338;48.832;9.422;2023-07-31T05:01:00;14.90;99.90
4787;DHT22;62338;48.832;9.422;2023-07-31T05:03:02;14.80;99.90
4787;DHT22;62338;48.832;9.422;2023-07-31T05:05:04;14.80;99.90
4787;DHT22;62338;48.832;9.422;2023-07-31T05:07:06;14.90;99.90
4787;DHT22;62338;48.832;9.422;2023-07-31T05:09:08;14.90;99.90
4787;DHT22;62338;48.832;9.422;2023-07-31T05:11:11;14.90;99.90
4787;DHT22;62338;48.832;9.422;2023-07-31T05:13:13;15.00;99.90
4787;DHT22;62338;48.832;9.422;2023-07-31T05:15:15;15.00;99.90
4787;DHT22;62338;48.832;9.422;2023-07-31T05:17:17;15.00;99.90
4787;DHT22;62338;48.832;9.422;2023-07-31T05:19:18;15.00;99.90
4787;DHT22;62338;48.832;9.422;2023-07-31T05:21:20;15.10;99.90
4787;DHT22;62338;48.832;9.422;2023-07-31T05:23:22;15.10;99.90
4787;DHT22;62338;48.832;9.422;2023-07-31T05:25:24;15.20;99.90
4787;DHT22;62338;48.832;9.422;2023-07-31T05:27:25;15.20;99.90
4787;DHT22;62338;48.832;9.422;2023-07-31T05:29:27;15.30;99.90
4787;DHT22;62338;48.832;9.422;2023-07-31T05:31:29;15.40;99.90
4787;DHT22;62338;48.832;9.422;2023-07-31T05:33:31;15.40;99.90
4787;DHT22;62338;48.832;9.422;2023-07-31T05:35:32;15.30;99.90
4787;DHT22;62338;48.832;9.422;2023-07-31T05:37:34;15.30;99.90
4787;DHT22;62338;48.832;9.422;2023-07-31T05:39:36;15.30;99.90
4787;DHT22;62338;48.832;9.422;2023-07-31T05:41:38;15.30;99.90
4787;DHT22;62338;48.832;9.422;2023-07-31T05:43:39;15.30;99.90
4787;DHT22;62338;48.832;9.422;2023-07-31T05:45:44;15.30;99.90
4787;DHT22;62338;48.832;9.422;2023-07-31T05:47:46;15.30;99.90
4787;DHT22;62338;48.832;9.422;2023-07-31T05:49:49;15.30;99.90
4787;DHT22;62338;48.832;9.422;2023-07-31T05:51:51;15.40;99.90
4787;DHT22;62338;48.832;9.422;2023-07-31T05:53:53;15.50;99.90
4787;DHT22;62338;48.832;9.422;2023-07-31T05:55:54;15.60;99.90
4787;DHT22;62338;48.832;9.422;2023-07-31T05:57:56;15.70;99.90
4787;DHT22;62338;48.832;9.422;2023-07-31T06:00:01;15.90;99.90
4787;DHT22;62338;48.832;9.422;2023-07-31T06:02:03;16.00;99.90
4787;DHT22;62338;48.832;9.422;2023-07-31T06:04:05;16.10;99.90
4787;DHT22;62338;48.832;9.422;2023-07-31T06:06:07;16.20;99.90
4787;DHT22;62338;48.832;9.422;2023-07-31T06:08:09;16.40;99.90
4787;DHT22;62338;48.832;9.422;2023-07-31T06:10:10;16.50;99.90
4787;DHT22;62338;48.832;9.422;2023-07-31T06:12:12;16.50;99.90
4787;DHT22;62338;48.832;9.422;2023-07-31T06:14:14;16.50;99.90
4787;DHT22;62338;48.832;9.422;2023-07-31T06:16:16;16.50;99.90
4787;DHT22;62338;48.832;9.422;2023-07-31T06:18:18;16.50;99.90
4787;DHT22;62338;48.832;9.422;2023-07-31T06:20:20;16.60;99.90
4787;DHT22;62338;48.832;9.422;2023-07-31T06:22:22;16.80;99.90
4787;DHT22;62338;48.832;9.422;2023-07-31T06:24:24;16.90;99.90
4787;DHT22;62338;48.832;9.422;2023-07-31T06:26:25;17.10;99.90
4787;DHT22;62338;48.832;9.422;2023-07-31T06:28:28;17.20;99.90
4787;DHT22;62338;48.832;9.422;2023-07-31T06:30:33;17.20;99.90
4787;DHT22;62338;48.832;9.422;2023-07-31T06:32:35;17.10;99.90
4787;DHT22;62338;48.832;9.422;2023-07-31T06:34:37;17.20;99.90
4787;DHT22;62338;48.832;9.422;2023-07-31T06:36:39;17.30;99.90
4787;DHT22;62338;48.832;9.422;2023-07-31T06:38:41;17.40;99.90
4787;DHT22;62338;48.832;9.422;2023-07-31T06:40:43;17.40;99.90
4787;DHT22;62338;48.832;9.422;2023-07-31T06:42:45;17.50;99.90
4787;DHT22;62338;48.832;9.422;2023-07-31T06:44:46;17.70;99.90
4787;DHT22;62338;48.832;9.422;2023-07-31T06:46:48;17.70;99.90
4787;DHT22;62338;48.832;9.422;2023-07-31T06:48:50;17.70;99.90
4787;DHT22;62338;48.832;9.422;2023-07-31T06:50:52;17.70;99.90
4787;DHT22;62338;48.832;9.422;2023-07-31T06:52:54;17.80;99.90
4787;DHT22;62338;48.832;9.422;2023-07-31T06:55:04;17.80;99.90
4787;DHT22;62338;48.832;9.422;2023-07-31T06:57:06;17.90;99.90
4787;DHT22;62338;48.832;9.422;2023-07-31T06:59:08;17.70;99.90
4787;DHT22;62338;48.832;9.422;2023-07-31T07:01:10;17.60;99.90
4787;DHT22;62338;48.832;9.422;2023-07-31T07:03:11;17.60;99.90
4787;DHT22;62338;48.832;9.422;2023-07-31T07:05:16;17.60;99.90
4787;DHT22;62338;48.832;9.422;2023-07-31T07:07:19;17.60;99.90
4787;DHT22;62338;48.832;9.422;2023-07-31T07:09:21;17.80;99.90
4787;DHT22;62338;48.832;9.422;2023-07-31T07:11:22;18.50;99.90
4787;DHT22;62338;48.832;9.422;2023-07-31T07:13:25;19.10;99.90
4787;DHT22;62338;48.832;9.422;2023-07-31T07:15:27;19.50;99.90
4787;DHT22;62338;48.832;9.422;2023-07-31T07:17:30;20.10;99.90
4787;DHT22;62338;48.832;9.422;2023-07-31T07:19:35;20.80;99.90
4787;DHT22;62338;48.832;9.422;2023-07-31T07:21:37;21.20;99.90
4787;DHT22;62338;48.832;9.422;2023-07-31T07:23:38;21.40;99.90
4787;DHT22;62338;48.832;9.422;2023-07-31T07:25:40;21.90;99.90
4787;DHT22;62338;48.832;9.422;2023-07-31T07:27:42;22.30;99.90
4787;DHT22;62338;48.832;9.422;2023-07-31T07:29:45;22.50;99.60
4787;DHT22;62338;48.832;9.422;2023-07-31T07:31:46;22.90;99.20
4787;DHT22;62338;48.832;9.422;2023-07-31T07:33:48;23.10;97.50
4787;DHT22;62338;48.832;9.422;2023-07-31T07:35:50;22.70;97.70
4787;DHT22;62338;48.832;9.422;2023-07-31T07:37:51;22.40;98.70
4787;DHT22;62338;48.832;9.422;2023-07-31T07:39:54;21.90;99.00
4787;DHT22;62338;48.832;9.422;2023-07-31T07:41:55;21.20;99.90
4787;DHT22;62338;48.832;9.422;2023-07-31T07:43:57;20.50;99.90
4787;DHT22;62338;48.832;9.422;2023-07-31T07:45:59;20.10;99.90
4787;DHT22;62338;48.832;9.422;2023-07-31T07:48:01;19.90;99.90
4787;DHT22;62338;48.832;9.422;2023-07-31T07:50:02;19.80;99.90
4787;DHT22;62338;48.832;9.422;2023-07-31T07:52:05;19.70;99.90
4787;DHT22;62338;48.832;9.422;2023-07-31T07:54:06;20.00;99.90
4787;DHT22;62338;48.832;9.422;2023-07-31T07:56:08;20.20;99.90
4787;DHT22;62338;48.832;9.422;2023-07-31T07:58:10;20.20;99.90
4787;DHT22;62338;48.832;9.422;2023-07-31T08:00:13;20.60;99.90
4787;DHT22;62338;48.832;9.422;2023-07-31T08:02:14;20.80;99.90
4787;DHT22;62338;48.832;9.422;2023-07-31T08:04:16;20.90;99.90
4787;DHT22;62338;48.832;9.422;2023-07-31T08:06:18;21.20;99.90
4787;DHT22;62338;48.832;9.422;2023-07-31T08:08:20;21.10;99.80
4787;DHT22;62338;48.832;9.422;2023-07-31T08:10:21;21.00;99.90
4787;DHT22;62338;48.832;9.422;2023-07-31T08:12:23;21.70;99.90
4787;DHT22;62338;48.832;9.422;2023-07-31T08:14:25;22.70;97.50
4787;DHT22;62338;48.832;9.422;2023-07-31T08:16:27;23.50;94.20
4787;DHT22;62338;48.832;9.422;2023-07-31T08:18:28;23.80;94.00
4787;DHT22;62338;48.832;9.422;2023-07-31T08:20:30;24.20;92.40
4787;DHT22;62338;48.832;9.422;2023-07-31T08:22:32;24.50;91.00
4787;DHT22;62338;48.832;9.422;2023-07-31T08:24:34;24.80;92.20
4787;DHT22;62338;48.832;9.422;2023-07-31T08:26:35;24.70;90.20
4787;DHT22;62338;48.832;9.422;2023-07-31T08:28:37;24.60;90.30
4787;DHT22;62338;48.832;9.422;2023-07-31T08:30:42;24.90;91.10
4787;DHT22;62338;48.832;9.422;2023-07-31T08:32:44;25.00;86.90
4787;DHT22;62338;48.832;9.422;2023-07-31T08:34:45;24.00;90.40
4787;DHT22;62338;48.832;9.422;2023-07-31T08:36:47;23.40;91.20
4787;DHT22;62338;48.832;9.422;2023-07-31T08:38:49;23.50;93.10
4787;DHT22;62338;48.832;9.422;2023-07-31T08:40:51;23.60;91.80
4787;DHT22;62338;48.832;9.422;2023-07-31T08:42:55;23.50;93.30
4787;DHT22;62338;48.832;9.422;2023-07-31T08:44:59;23.10;94.00
4787;DHT22;62338;48.832;9.422;2023-07-31T08:47:01;23.00;98.50
4787;DHT22;62338;48.832;9.422;2023-07-31T08:49:07;23.80;93.70
4787;DHT22;62338;48.832;9.422;2023-07-31T08:51:09;24.50;89.30
4787;DHT22;62338;48.832;9.422;2023-07-31T08:53:11;25.30;88.50
4787;DHT22;62338;48.832;9.422;2023-07-31T08:55:13;25.50;85.80
4787;DHT22;62338;48.832;9.422;2023-07-31T08:57:14;25.30;86.60
4787;DHT22;62338;48.832;9.422;2023-07-31T08:59:17;25.80;84.70
4787;DHT22;62338;48.832;9.422;2023-07-31T09:01:20;25.70;83.80
4787;DHT22;62338;48.832;9.422;2023-07-31T09:03:24;25.70;82.10
4787;DHT22;62338;48.832;9.422;2023-07-31T09:05:29;25.30;82.20
4787;DHT22;62338;48.832;9.422;2023-07-31T09:07:31;25.40;86.70
4787;DHT22;62338;48.832;9.422;2023-07-31T09:09:34;26.20;81.60
4787;DHT22;62338;48.832;9.422;2023-07-31T09:11:36;26.70;80.40
4787;DHT22;62338;48.832;9.422;2023-07-31T09:13:40;26.60;78.30
4787;DHT22;62338;48.832;9.422;2023-07-31T09:15:46;26.50;78.50
4787;DHT22;62338;48.832;9.422;2023-07-31T09:17:48;26.80;78.30
4787;DHT22;62338;48.832;9.422;2023-07-31T09:20:19;26.60;75.60
4787;DHT22;62338;48.832;9.422;2023-07-31T09:22:32;25.30;75.90
4787;DHT22;62338;48.832;9.422;2023-07-31T09:24:37;24.40;82.70
4787;DHT22;62338;48.832;9.422;2023-07-31T09:26:39;24.20;84.10
4787;DHT22;62338;48.832;9.422;2023-07-31T09:28:41;24.10;83.50
4787;DHT22;62338;48.832;9.422;2023-07-31T09:30:48;23.40;86.40
4787;DHT22;62338;48.832;9.422;2023-07-31T09:32:51;23.60;86.20
4787;DHT22;62338;48.832;9.422;2023-07-31T09:34:53;23.70;86.70
4787;DHT22;62338;48.832;9.422;2023-07-31T09:36:59;23.60;86.60
4787;DHT22;62338;48.832;9.422;2023-07-31T09:39:03;23.70;90.30
4787;DHT22;62338;48.832;9.422;2023-07-31T09:41:05;24.30;87.60
4787;DHT22;62338;48.832;9.422;2023-07-31T09:43:23;24.00;85.70
4787;DHT22;62338;48.832;9.422;2023-07-31T09:45:26;23.70;85.50
4787;DHT22;62338;48.832;9.422;2023-07-31T09:47:47;23.60;86.00
4787;DHT22;62338;48.832;9.422;2023-07-31T09:49:50;23.20;89.30
4787;DHT22;62338;48.832;9.422;2023-07-31T09:51:51;22.90;90.50
4787;DHT22;62338;48.832;9.422;2023-07-31T09:53:58;22.50;91.00
4787;DHT22;62338;48.832;9.422;2023-07-31T09:56:00;22.20;90.70
4787;DHT22;62338;48.832;9.422;2023-07-31T09:58:06;21.80;92.20
4787;DHT22;62338;48.832;9.422;2023-07-31T10:00:10;21.60;92.70
4787;DHT22;62338;48.832;9.422;2023-07-31T10:02:15;21.40;94.00
4787;DHT22;62338;48.832;9.422;2023-07-31T10:04:18;21.20;93.10
4787;DHT22;62338;48.832;9.422;2023-07-31T10:06:23;21.10;95.00
4787;DHT22;62338;48.832;9.422;2023-07-31T10:08:30;21.30;95.80
4787;DHT22;62338;48.832;9.422;2023-07-31T10:10:35;21.50;94.70
4787;DHT22;62338;48.832;9.422;2023-07-31T10:12:38;21.50;95.40
4787;DHT22;62338;48.832;9.422;2023-07-31T10:14:39;21.30;94.60
4787;DHT22;62338;48.832;9.422;2023-07-31T10:16:42;21.50;94.20
4787;DHT22;62338;48.832;9.422;2023-07-31T10:18:45;21.40;94.60
4787;DHT22;62338;48.832;9.422;2023-07-31T10:20:47;21.60;94.50
4787;DHT22;62338;48.832;9.422;2023-07-31T10:22:50;21.60;95.60
4787;DHT22;62338;48.832;9.422;2023-07-31T10:24:54;21.70;93.80
4787;DHT22;62338;48.832;9.422;2023-07-31T10:27:00;21.80;94.90
4787;DHT22;62338;48.832;9.422;2023-07-31T10:29:04;22.10;93.00
4787;DHT22;62338;48.832;9.422;2023-07-31T10:31:07;22.30;93.30
4787;DHT22;62338;48.832;9.422;2023-07-31T10:33:09;22.30;92.70
4787;DHT22;62338;48.832;9.422;2023-07-31T10:35:12;22.00;93.00
4787;DHT22;62338;48.832;9.422;2023-07-31T10:37:30;21.80;93.20
4787;DHT22;62338;48.832;9.422;2023-07-31T10:39:36;21.70;95.30
4787;DHT22;62338;48.832;9.422;2023-07-31T10:41:40;21.90;92.80
4787;DHT22;62338;48.832;9.422;2023-07-31T10:43:42;22.30;92.40
4787;DHT22;62338;48.832;9.422;2023-07-31T10:45:44;22.60;92.60
4787;DHT22;62338;48.832;9.422;2023-07-31T10:47:46;23.00;93.50
4787;DHT22;62338;48.832;9.422;2023-07-31T10:49:48;23.20;92.50
4787;DHT22;62338;48.832;9.422;2023-07-31T10:51:50;23.50;90.00
4787;DHT22;62338;48.832;9.422;2023-07-31T10:54:13;23.50;91.80
4787;DHT22;62338;48.832;9.422;2023-07-31T10:56:16;23.40;92.70
4787;DHT22;62338;48.832;9.422;2023-07-31T10:58:23;23.30;92.50
4787;DHT22;62338;48.832;9.422;2023-07-31T11:00:29;23.50;91.60
4787;DHT22;62338;48.832;9.422;2023-07-31T11:02:33;23.70;89.90
4787;DHT22;62338;48.832;9.422;2023-07-31T11:04:35;23.50;90.70
4787;DHT22;62338;48.832;9.422;2023-07-31T11:06:37;23.20;88.40
4787;DHT22;62338;48.832;9.422;2023-07-31T11:08:44;23.10;90.20
4787;DHT22;62338;48.832;9.422;2023-07-31T11:10:47;23.20;91.40
4787;DHT22;62338;48.832;9.422;2023-07-31T11:12:49;23.20;91.50
4787;DHT22;62338;48.832;9.422;2023-07-31T11:14:56;23.90;91.70
4787;DHT22;62338;48.832;9.422;2023-07-31T11:16:58;24.40;91.30
4787;DHT22;62338;48.832;9.422;2023-07-31T11:19:00;24.90;91.30
4787;DHT22;62338;48.832;9.422;2023-07-31T11:21:02;25.40;89.60
4787;DHT22;62338;48.832;9.422;2023-07-31T11:23:08;26.10;88.60
4787;DHT22;62338;48.832;9.422;2023-07-31T11:25:10;26.70;84.00
4787;DHT22;62338;48.832;9.422;2023-07-31T11:27:12;27.10;78.40
4787;DHT22;62338;48.832;9.422;2023-07-31T11:29:14;26.60;80.00
4787;DHT22;62338;48.832;9.422;2023-07-31T11:31:17;26.80;81.60
4787;DHT22;62338;48.832;9.422;2023-07-31T11:33:19;27.10;80.10
4787;DHT22;62338;48.832;9.422;2023-07-31T11:35:20;27.00;78.80
4787;DHT22;62338;48.832;9.422;2023-07-31T11:37:23;26.10;79.60
4787;DHT22;62338;48.832;9.422;2023-07-31T11:39:25;25.90;84.90
4787;DHT22;62338;48.832;9.422;2023-07-31T11:41:29;25.80;84.20
4787;DHT22;62338;48.832;9.422;2023-07-31T11:43:31;25.60;87.00
4787;DHT22;62338;48.832;9.422;2023-07-31T11:45:33;25.60;87.60
4787;DHT22;62338;48.832;9.422;2023-07-31T11:47:37;25.90;85.10
4787;DHT22;62338;48.832;9.422;2023-07-31T11:49:39;25.80;80.60
4787;DHT22;62338;48.832;9.422;2023-07-31T11:51:41;25.40;79.20
4787;DHT22;62338;48.832;9.422;2023-07-31T11:53:51;24.70;83.10
4787;DHT22;62338;48.832;9.422;2023-07-31T11:55:54;24.20;81.70
4787;DHT22;62338;48.832;9.422;2023-07-31T11:57:57;23.70;83.70
4787;DHT22;62338;48.832;9.422;2023-07-31T12:00:00;23.30;85.60
4787;DHT22;62338;48.832;9.422;2023-07-31T12:02:02;22.70;87.50
4787;DHT22;62338;48.832;9.422;2023-07-31T12:04:04;22.20;88.10
4787;DHT22;62338;48.832;9.422;2023-07-31T12:06:06;21.60;91.60
4787;DHT22;62338;48.832;9.422;2023-07-31T12:08:10;21.30;92.10
4787;DHT22;62338;48.832;9.422;2023-07-31T12:10:29;21.20;93.60
4787;DHT22;62338;48.832;9.422;2023-07-31T12:12:31;21.40;94.30
4787;DHT22;62338;48.832;9.422;2023-07-31T12:14:33;21.50;92.80
4787;DHT22;62338;48.832;9.422;2023-07-31T12:16:35;21.50;93.40
4787;DHT22;62338;48.832;9.422;2023-07-31T12:18:38;21.70;93.50
4787;DHT22;62338;48.832;9.422;2023-07-31T12:20:42;21.90;93.50
4787;DHT22;62338;48.832;9.422;2023-07-31T12:22:44;22.20;92.50
4787;DHT22;62338;48.832;9.422;2023-07-31T12:24:46;22.30;91.80
4787;DHT22;62338;48.832;9.422;2023-07-31T12:26:48;22.40;92.30
4787;DHT22;62338;48.832;9.422;2023-07-31T12:28:51;22.60;94.20
4787;DHT22;62338;48.832;9.422;2023-07-31T12:30:59;22.40;92.10
4787;DHT22;62338;48.832;9.422;2023-07-31T12:33:13;22.10;93.30
4787;DHT22;62338;48.832;9.422;2023-07-31T12:35:15;21.70;93.30
4787;DHT22;62338;48.832;9.422;2023-07-31T12:37:17;21.50;94.90
4787;DHT22;62338;48.832;9.422;2023-07-31T12:39:19;21.40;96.90
4787;DHT22;62338;48.832;9.422;2023-07-31T12:41:21;21.40;95.00
4787;DHT22;62338;48.832;9.422;2023-07-31T12:43:22;21.40;96.80
4787;DHT22;62338;48.832;9.422;2023-07-31T12:45:24;21.50;96.70
4787;DHT22;62338;48.832;9.422;2023-07-31T12:47:26;21.50;96.60
4787;DHT22;62338;48.832;9.422;2023-07-31T12:49:28;21.70;96.60
4787;DHT22;62338;48.832;9.422;2023-07-31T12:51:29;21.90;96.80
4787;DHT22;62338;48.832;9.422;2023-07-31T12:53:31;21.70;94.60
4787;DHT22;62338;48.832;9.422;2023-07-31T12:55:34;21.50;95.30
4787;DHT22;62338;48.832;9.422;2023-07-31T12:57:39;21.40;95.70
4787;DHT22;62338;48.832;9.422;2023-07-31T12:59:41;21.10;95.80
4787;DHT22;62338;48.832;9.422;2023-07-31T13:01:42;21.10;99.30
4787;DHT22;62338;48.832;9.422;2023-07-31T13:03:45;21.20;99.10
4787;DHT22;62338;48.832;9.422;2023-07-31T13:05:47;21.20;97.00
4787;DHT22;62338;48.832;9.422;2023-07-31T13:07:48;21.30;97.60
4787;DHT22;62338;48.832;9.422;2023-07-31T13:09:53;21.20;96.90